Time;durP1;ratioP1;P1;durP2;ratioP2;P2;SDS_P1;SDS_P2;PMS_P1;PMS_P2;Temp;Humidity;BMP_temperature;BMP_pressure;BME280_temperature;BME280_humidity;BME280_pressure;Samples;Min_cycle;Max_cycle;Signal;HPM_P1;HPM_P2
2022/01/19 00:01:30;;;;;;;9.18;5.95;;;4.10;99.90;;;2.97;100.00;99117.09;5028461;28;20045;-67
2022/01/19 00:04:00;;;;;;;8.82;6.03;;;4.10;99.90;;;3.09;100.00;99115.50;5024899;28;20517;-66
2022/01/19 00:06:27;;;;;;;10.10;6.22;;;4.10;99.90;;;3.11;100.00;99118.09;5026200;28;20056;-67
2022/01/19 00:08:54;;;;;;;10.63;6.57;;;4.10;99.90;;;3.09;100.00;99110.38;5026511;28;20501;-67
2022/01/19 00:11:22;;;;;;;10.00;6.38;;;4.10;99.90;;;3.01;100.00;99106.00;5027791;28;20447;-67
2022/01/19 00:13:50;;;;;;;7.80;5.88;;;4.10;99.90;;;2.96;100.00;99105.94;5025209;28;20124;-67
2022/01/19 00:16:18;;;;;;;8.98;6.32;;;4.10;99.90;;;2.95;100.00;99093.13;5025485;28;20048;-66
2022/01/19 00:18:45;;;;;;;8.50;5.72;;;4.00;99.90;;;3.04;100.00;99073.56;5024841;28;20466;-66
2022/01/19 00:21:12;;;;;;;10.82;5.97;;;4.10;99.90;;;3.01;100.00;99067.53;5024287;28;20132;-66
2022/01/19 00:23:39;;;;;;;9.07;5.70;;;4.00;99.90;;;3.08;100.00;99067.63;5022177;28;20045;-66
2022/01/19 00:26:07;;;;;;;8.10;5.20;;;4.00;99.90;;;3.08;100.00;99056.47;5026866;28;20119;-67
2022/01/19 00:28:34;;;;;;;7.95;5.28;;;4.10;99.90;;;2.97;100.00;99050.41;5023638;28;20128;-67
2022/01/19 00:31:01;;;;;;;11.18;5.25;;;4.10;99.90;;;2.93;100.00;99049.47;5027039;28;20104;-68
2022/01/19 00:33:28;;;;;;;7.80;4.75;;;4.10;99.90;;;3.01;100.00;99050.44;5026442;28;20072;-66
2022/01/19 00:35:55;;;;;;;6.93;4.30;;;4.10;99.90;;;3.00;100.00;99051.28;5026737;28;20132;-67
2022/01/19 00:38:22;;;;;;;8.43;3.70;;;4.10;99.90;;;3.10;100.00;99065.06;5026533;28;20136;-67
2022/01/19 00:40:49;;;;;;;6.57;4.22;;;4.10;99.90;;;3.18;100.00;99078.00;5027218;28;20374;-67
2022/01/19 00:43:16;;;;;;;9.02;5.55;;;4.00;99.90;;;3.03;100.00;99076.09;5025919;28;20126;-67
2022/01/19 00:45:45;;;;;;;6.97;4.03;;;4.10;99.90;;;3.14;100.00;99072.81;5030279;28;20045;-67
2022/01/19 00:48:27;;;;;;;;;;;4.10;99.90;;;3.19;100.00;99075.41;5026639;28;20057;-67
2022/01/19 00:50:57;;;;;;;8.15;4.05;;;4.10;99.90;;;3.08;100.00;99074.44;5026206;28;19921;-67
2022/01/19 00:53:25;;;;;;;8.68;4.32;;;4.10;99.90;;;2.87;100.00;99072.47;5026747;28;20139;-67
2022/01/19 00:55:52;;;;;;;6.82;4.00;;;4.10;99.90;;;2.78;100.00;99069.81;5026099;28;20126;-67
2022/01/19 00:58:19;;;;;;;5.53;3.65;;;4.00;99.90;;;2.65;100.00;99061.97;5026183;28;20063;-67
2022/01/19 01:00:46;;;;;;;7.45;4.07;;;3.90;99.90;;;2.58;100.00;99065.31;5027863;28;20042;-67
2022/01/19 01:03:14;;;;;;;5.78;3.92;;;3.90;99.90;;;2.70;100.00;99056.91;5026148;28;20057;-66
2022/01/19 01:05:41;;;;;;;5.05;2.90;;;3.80;99.90;;;2.79;100.00;99048.47;5026027;28;20077;-67
2022/01/19 01:08:09;;;;;;;6.57;3.55;;;3.80;99.90;;;2.92;100.00;99047.78;5026301;28;20049;-67
2022/01/19 01:10:42;;;;;;;6.00;3.92;;;3.90;99.90;;;2.84;100.00;99044.25;5027939;28;20122;-66
2022/01/19 01:15:24;;;;;;;8.15;3.63;;;3.90;99.90;;;2.81;100.00;99033.97;5026137;28;20046;-66
2022/01/19 01:16:30;;;;;;;5.93;3.75;;;3.90;99.90;;;2.87;100.00;99031.44;5026707;28;20144;-66
2022/01/19 01:18:58;;;;;;;7.25;3.20;;;3.90;99.90;;;2.82;100.00;99027.97;5033858;28;20049;-67
2022/01/19 01:21:25;;;;;;;7.13;3.67;;;3.90;99.90;;;2.92;100.00;99017.84;5026957;28;20037;-66
2022/01/19 01:23:53;;;;;;;8.65;3.70;;;3.80;99.90;;;2.82;100.00;99005.75;5027375;28;20223;-66
2022/01/19 01:26:19;;;;;;;5.68;3.33;;;3.80;99.90;;;2.81;100.00;98992.94;5027863;28;20057;-66
2022/01/19 01:28:46;;;;;;;7.72;3.47;;;3.80;99.90;;;2.82;100.00;98997.22;5026134;28;20491;-67
2022/01/19 01:31:14;;;;;;;6.57;3.40;;;3.80;99.90;;;2.92;100.00;98986.22;5027013;28;20521;-67
2022/01/19 01:33:41;;;;;;;8.70;5.00;;;3.80;99.90;;;2.64;100.00;98978.19;5030907;28;20042;-67
2022/01/19 01:36:10;;;;;;;7.32;3.95;;;3.70;99.90;;;2.73;100.00;98970.59;5029233;28;20053;-66
2022/01/19 01:38:37;;;;;;;10.07;4.80;;;3.70;99.90;;;2.48;100.00;98969.47;5032646;28;20088;-67
2022/01/19 01:41:12;;;;;;;6.38;3.88;;;3.70;99.90;;;2.60;100.00;98966.22;5032010;28;20136;-66
2022/01/19 01:43:42;;;;;;;8.05;4.43;;;3.60;99.90;;;2.50;100.00;98965.22;5030303;28;20057;-66
2022/01/19 01:46:22;;;;;;;8.73;4.95;;;3.60;99.90;;;2.24;100.00;98964.91;5029911;28;20045;-66
2022/01/19 01:48:49;;;;;;;9.23;4.80;;;3.40;99.90;;;2.17;100.00;98959.69;5028052;28;20323;-66
2022/01/19 01:54:02;;;;;;;11.93;5.82;;;3.20;99.90;;;2.00;100.00;98956.91;5031261;28;20161;-67
2022/01/19 01:56:29;;;;;;;10.85;4.70;;;3.10;99.90;;;1.90;100.00;98955.06;5030759;28;20148;-66
2022/01/19 01:58:56;;;;;;;6.50;3.97;;;3.00;99.90;;;1.87;100.00;98943.94;5029466;28;20045;-66
2022/01/19 02:01:23;;;;;;;7.85;4.70;;;3.00;99.90;;;1.84;100.00;98955.81;5031645;28;20132;-66
2022/01/19 02:03:50;;;;;;;12.07;6.13;;;2.80;99.90;;;1.62;100.00;98957.19;5032240;28;20486;-67
2022/01/19 02:08:58;;;;;;;10.80;6.05;;;2.80;99.90;;;1.63;100.00;98931.63;5029172;28;20103;-66
2022/01/19 02:21:38;;;;;;;11.00;6.60;;;2.50;99.90;;;1.03;100.00;98876.13;5030465;28;20487;-67
2022/01/19 02:22:15;;;;;;;11.55;6.65;;;2.20;99.90;;;1.07;100.00;98852.31;5029387;28;20129;-67
2022/01/19 02:24:45;;;;;;;13.15;6.85;;;2.20;99.90;;;1.11;100.00;98841.31;5030931;28;20120;-66
2022/01/19 02:41:11;;;;;;;10.93;6.57;;;2.10;99.90;;;0.92;100.00;98837.59;5029827;28;20054;-67
2022/01/19 02:43:38;;;;;;;11.07;7.20;;;2.00;99.90;;;0.93;100.00;98829.09;5029654;28;20070;-66
2022/01/19 02:49:14;;;;;;;16.30;8.52;;;1.90;99.90;;;0.65;100.00;98832.03;5026573;28;20144;-66
2022/01/19 02:51:54;;;;;;;10.18;5.90;;;1.80;99.90;;;0.63;100.00;98819.22;5028872;28;20088;-67
2022/01/19 02:54:24;;;;;;;12.65;7.40;;;1.80;99.90;;;0.64;100.00;98813.31;5029922;28;20094;-67
2022/01/19 02:56:54;;;;;;;11.75;6.43;;;1.70;99.90;;;0.53;100.00;98819.91;5028505;28;20149;-67
2022/01/19 03:00:03;;;;;;;12.85;6.43;;;1.70;99.90;;;0.23;100.00;98816.00;5028262;28;20137;-67
2022/01/19 03:10:28;;;;;;;12.20;6.78;;;1.40;99.90;;;0.22;100.00;98803.19;5031695;28;20140;-66
2022/01/19 03:12:55;;;;;;;14.10;7.65;;;1.30;99.90;;;0.26;100.00;98808.38;5028881;28;20125;-67
2022/01/19 03:15:22;;;;;;;15.70;9.88;;;1.20;99.90;;;0.10;100.00;98817.44;5029061;28;20049;-66
2022/01/19 03:17:50;;;;;;;12.48;7.28;;;1.30;99.90;;;0.15;100.00;98814.97;5029260;28;20152;-66
2022/01/19 03:20:17;;;;;;;13.15;6.78;;;1.20;99.90;;;0.17;100.00;98816.72;5029026;28;20223;-66
2022/01/19 03:22:53;;;;;;;14.30;8.93;;;1.20;99.90;;;0.23;100.00;98812.53;5027897;28;20436;-65
2022/01/19 03:25:21;;;;;;;10.38;6.50;;;1.20;99.90;;;0.24;100.00;98810.03;5029839;28;20128;-66
2022/01/19 03:27:48;;;;;;;12.50;6.80;;;1.20;99.90;;;0.26;100.00;98813.47;5028054;28;20132;-65
2022/01/19 03:30:17;;;;;;;11.27;7.22;;;1.20;99.90;;;0.06;100.00;98808.00;5028548;28;20350;-65
2022/01/19 03:32:45;;;;;;;10.90;6.30;;;1.10;99.90;;;0.04;100.00;98804.53;5028533;28;20079;-66
2022/01/19 03:35:14;;;;;;;11.32;5.32;;;1.00;99.90;;;-0.23;100.00;98807.41;5027641;28;20497;-67
2022/01/19 03:37:41;;;;;;;10.65;5.25;;;0.90;99.90;;;-0.22;100.00;98814.25;5025819;28;20163;-65
2022/01/19 03:40:09;;;;;;;9.65;6.72;;;0.80;99.90;;;-0.24;100.00;98811.66;5026571;28;20077;-66
2022/01/19 03:42:36;;;;;;;14.65;8.65;;;0.80;99.90;;;-0.53;100.00;98818.72;5028093;28;20084;-66
2022/01/19 03:45:06;;;;;;;10.93;6.68;;;0.70;99.90;;;-0.41;100.00;98818.13;5027991;28;20131;-66
2022/01/19 03:50:28;;;;;;;12.27;7.18;;;0.70;99.90;;;-0.39;100.00;98823.25;5039353;28;20084;-66
2022/01/19 03:52:55;;;;;;;12.70;7.45;;;0.70;99.90;;;-0.54;100.00;98819.56;5028596;28;20120;-67
2022/01/19 03:55:22;;;;;;;14.70;8.05;;;0.60;99.90;;;-0.60;100.00;98816.84;5027506;28;20156;-66
2022/01/19 03:57:49;;;;;;;12.50;6.68;;;0.50;99.90;;;-0.75;100.00;98808.88;5024332;28;20377;-66
2022/01/19 04:00:16;;;;;;;10.63;6.72;;;0.40;99.90;;;-0.91;100.00;98808.53;5027997;28;20128;-66
2022/01/19 04:02:43;;;;;;;11.77;6.60;;;0.30;99.90;;;-0.98;100.00;98798.16;5028901;28;20047;-66
2022/01/19 04:05:20;;;;;;;12.52;4.78;;;0.30;99.90;;;-0.70;100.00;98790.31;5028002;28;20205;-67
2022/01/19 04:07:47;;;;;;;15.32;7.45;;;0.30;99.90;;;-0.89;100.00;98783.06;5026700;28;20047;-66
2022/01/19 04:10:14;;;;;;;10.10;5.75;;;0.30;99.90;;;-0.85;100.00;98795.06;5028286;28;20134;-66
2022/01/19 04:12:44;;;;;;;15.10;6.57;;;0.20;99.90;;;-0.86;100.00;98796.75;5027834;28;20148;-66
2022/01/19 04:15:15;;;;;;;8.27;5.03;;;0.20;99.90;;;-0.82;100.00;98792.59;5027047;28;20125;-66
2022/01/19 04:17:50;;;;;;;14.00;6.70;;;0.10;99.90;;;-0.99;100.00;98792.19;5028051;28;20054;-67
2022/01/19 04:20:24;;;;;;;12.43;6.13;;;0.10;99.90;;;-0.92;100.00;98794.06;5027208;28;20049;-66
2022/01/19 04:22:54;;;;;;;8.65;5.65;;;0.10;99.90;;;-0.94;100.00;98794.84;5028062;28;20090;-66
2022/01/19 04:25:21;;;;;;;11.02;5.25;;;0.00;99.90;;;-0.91;100.00;98793.25;5027850;28;20042;-66
2022/01/19 04:27:48;;;;;;;12.23;7.15;;;0.00;99.90;;;-1.16;100.00;98785.88;5026776;28;20125;-66
2022/01/19 04:30:17;;;;;;;13.45;6.90;;;-0.10;99.90;;;-1.33;100.00;98793.09;5029538;28;20251;-67
2022/01/19 04:35:27;;;;;;;22.60;13.73;;;-0.10;99.90;;;-1.30;100.00;98786.41;5026400;28;20369;-67
2022/01/19 04:46:21;;;;;;;19.52;9.35;;;-0.20;99.90;;;-1.32;100.00;98775.31;5026697;28;20049;-66
2022/01/19 05:07:43;;;;;;;23.90;12.93;;;-0.40;99.90;;;-1.81;100.00;98750.34;5035508;28;20358;-66
2022/01/19 05:15:41;;;;;;;25.77;13.05;;;-0.30;99.90;;;-1.70;100.00;98756.56;5034272;28;20149;-66
2022/01/19 05:18:09;;;;;;;22.00;10.85;;;-0.30;99.90;;;-1.73;100.00;98748.84;5034278;28;20132;-67
2022/01/19 05:20:36;;;;;;;23.40;12.88;;;-0.30;99.90;;;-1.57;100.00;98748.41;5036497;28;20124;-67
2022/01/19 05:23:03;;;;;;;22.95;12.40;;;-0.30;99.90;;;-1.54;100.00;98753.56;5035205;28;20056;-67
2022/01/19 05:25:30;;;;;;;21.05;11.70;;;-0.30;99.90;;;-1.44;100.00;98751.22;5035253;28;20468;-66
2022/01/19 05:27:57;;;;;;;30.38;14.43;;;-0.20;99.90;;;-1.51;100.00;98748.53;5033737;28;20125;-66
2022/01/19 05:30:24;;;;;;;20.88;10.85;;;-0.20;99.90;;;-1.37;100.00;98750.53;5036331;28;20136;-66
2022/01/19 05:32:51;;;;;;;24.08;12.05;;;-0.20;99.90;;;-1.38;100.00;98744.59;5033720;28;20045;-66
2022/01/19 05:35:18;;;;;;;22.63;12.85;;;-0.20;99.90;;;-1.44;100.00;98744.44;5036778;28;20060;-67
2022/01/19 05:37:45;;;;;;;21.23;11.73;;;-0.10;99.90;;;-1.46;100.00;98743.53;5036083;28;20208;-67
2022/01/19 05:40:14;;;;;;;28.77;14.50;;;-0.20;99.90;;;-1.60;100.00;98742.34;5040375;28;20406;-67
2022/01/19 05:42:41;;;;;;;27.58;14.27;;;-0.10;99.90;;;-1.52;100.00;98748.50;5035442;28;20513;-66
2022/01/19 05:45:09;;;;;;;21.98;14.23;;;-0.10;99.90;;;-1.52;100.00;98740.88;5037023;28;20120;-66
2022/01/19 05:47:36;;;;;;;22.50;13.50;;;-0.10;99.90;;;-1.48;100.00;98733.34;5034422;28;20073;-67
2022/01/19 05:50:04;;;;;;;28.10;16.42;;;-0.10;99.90;;;-1.52;100.00;98733.22;5032492;28;20085;-66
2022/01/19 05:52:31;;;;;;;28.50;15.65;;;-0.10;99.90;;;-1.51;100.00;98729.84;5035176;28;20469;-66
2022/01/19 05:54:58;;;;;;;25.55;13.70;;;-0.10;99.90;;;-1.40;100.00;98723.31;5033018;28;20132;-66
2022/01/19 05:57:25;;;;;;;35.28;18.42;;;-0.10;99.90;;;-1.54;100.00;98723.00;5041864;28;20041;-66
2022/01/19 05:59:52;;;;;;;29.50;16.45;;;-0.10;99.90;;;-1.51;100.00;98715.44;5034560;28;20141;-66
2022/01/19 06:02:19;;;;;;;29.75;16.27;;;-0.20;99.90;;;-1.53;100.00;98711.13;5037093;28;20081;-66
2022/01/19 06:04:47;;;;;;;27.67;15.40;;;-0.20;99.90;;;-1.55;100.00;98708.56;5034574;28;20119;-66
2022/01/19 06:07:14;;;;;;;29.70;16.13;;;-0.20;99.90;;;-1.49;100.00;98702.75;5034038;28;20041;-66
2022/01/19 06:12:13;;;;;;;29.48;16.63;;;-0.30;99.90;;;-1.55;100.00;98700.94;5034513;28;20063;-66
2022/01/19 06:14:43;;;;;;;39.42;21.88;;;-0.40;99.90;;;-1.59;100.00;98708.47;5035387;28;20516;-67
2022/01/19 06:17:13;;;;;;;36.08;19.85;;;-0.40;99.90;;;-1.61;100.00;98702.47;5032449;28;20119;-67
2022/01/19 06:19:41;;;;;;;33.65;17.65;;;-0.40;99.90;;;-1.62;100.00;98691.44;5033616;28;20124;-66
2022/01/19 06:22:08;;;;;;;33.03;17.92;;;-0.40;99.90;;;-1.64;100.00;98689.63;5030428;28;20140;-67
2022/01/19 06:24:38;;;;;;;34.88;18.58;;;-0.40;99.90;;;-1.65;100.00;98688.78;5030539;28;20042;-66
2022/01/19 06:27:06;;;;;;;44.58;19.65;;;-0.50;99.90;;;-1.73;100.00;98687.75;5032091;28;20141;-67
2022/01/19 06:29:33;;;;;;;39.28;18.70;;;-0.50;99.90;;;-1.75;100.00;98690.25;5029083;28;20136;-67
2022/01/19 06:32:00;;;;;;;39.53;17.75;;;-0.60;99.90;;;-1.85;100.00;98701.03;5032878;28;20140;-66
2022/01/19 06:34:27;;;;;;;29.70;14.77;;;-0.60;99.90;;;-1.82;100.00;98703.66;5030224;28;20083;-67
2022/01/19 06:36:54;;;;;;;28.38;14.52;;;-0.60;99.90;;;-1.90;100.00;98698.38;5030531;28;20655;-67
2022/01/19 06:39:22;;;;;;;47.78;24.27;;;-0.60;99.90;;;-2.06;100.00;98698.81;5027319;28;20329;-67
2022/01/19 06:41:49;;;;;;;44.72;22.58;;;-0.70;99.90;;;-2.12;100.00;98703.75;5029290;28;20449;-68
2022/01/19 06:44:16;;;;;;;46.60;24.58;;;-0.70;99.90;;;-1.95;100.00;98699.09;5030138;28;20136;-68
2022/01/19 06:46:44;;;;;;;61.78;30.85;;;-0.70;99.90;;;-2.03;100.00;98698.91;5030934;28;20095;-69
2022/01/19 06:49:11;;;;;;;53.33;31.02;;;-0.60;99.90;;;-1.91;100.00;98701.75;5029831;28;20521;-68
2022/01/19 06:51:38;;;;;;;45.13;25.02;;;-0.60;99.90;;;-1.81;100.00;98700.28;5030714;28;20136;-67
2022/01/19 06:54:06;;;;;;;44.13;23.88;;;-0.60;99.90;;;-1.75;100.00;98697.91;5030849;28;20129;-68
2022/01/19 06:56:37;;;;;;;49.53;26.50;;;-0.50;99.90;;;-1.69;100.00;98692.09;5028817;28;20137;-68
2022/01/19 06:59:05;;;;;;;35.58;21.08;;;-0.40;99.90;;;-1.50;100.00;98698.50;5028744;28;20516;-68
2022/01/19 07:01:33;;;;;;;44.67;23.60;;;-0.30;99.90;;;-1.61;100.00;98698.22;5031315;28;20132;-68
2022/01/19 07:04:03;;;;;;;59.70;29.73;;;-0.20;99.90;;;-1.59;100.00;98696.56;5030331;28;20115;-67
2022/01/19 07:06:31;;;;;;;51.35;28.08;;;-0.30;99.90;;;-1.67;100.00;98700.63;5029879;28;20088;-68
2022/01/19 07:08:58;;;;;;;54.95;29.17;;;-0.30;99.90;;;-1.49;100.00;98700.19;5029439;28;20077;-68
2022/01/19 07:11:25;;;;;;;39.20;22.80;;;-0.20;99.90;;;-1.44;100.00;98697.75;5029940;28;20470;-67
2022/01/19 07:13:52;;;;;;;33.30;19.13;;;-0.20;99.90;;;-1.28;100.00;98695.59;5030132;28;20100;-69
2022/01/19 07:16:20;;;;;;;32.22;17.17;;;-0.10;99.90;;;-1.30;100.00;98702.34;5030290;28;20129;-68
2022/01/19 07:18:47;;;;;;;34.38;19.77;;;-0.10;99.90;;;-1.38;100.00;98698.75;5030630;28;20081;-68
2022/01/19 07:21:14;;;;;;;29.50;15.48;;;0.00;99.90;;;-1.17;100.00;98685.63;5029302;28;20153;-69
2022/01/19 07:23:41;;;;;;;27.23;15.25;;;0.00;99.90;;;-1.10;100.00;98678.97;5030148;28;20145;-65
2022/01/19 07:26:08;;;;;;;25.83;15.48;;;0.00;99.90;;;-1.19;100.00;98681.34;5029315;28;20135;-68
2022/01/19 07:28:35;;;;;;;33.83;18.00;;;0.10;99.90;;;-1.15;100.00;98683.97;5028792;28;20148;-66
2022/01/19 07:31:02;;;;;;;25.80;14.30;;;0.10;99.90;;;-1.06;100.00;98684.19;5028404;28;20140;-68
2022/01/19 07:33:31;;;;;;;26.70;16.38;;;0.20;99.90;;;-1.08;100.00;98679.88;5030016;28;20060;-65
2022/01/19 07:35:58;;;;;;;29.00;15.02;;;0.10;99.90;;;-1.12;100.00;98684.06;5028945;28;20053;-66
2022/01/19 07:38:26;;;;;;;31.17;17.08;;;0.10;99.90;;;-1.13;100.00;98677.22;5029068;28;20151;-67
2022/01/19 07:40:54;;;;;;;24.25;14.20;;;0.10;99.90;;;-0.97;100.00;98680.13;5029690;28;20140;-65
2022/01/19 07:43:21;;;;;;;27.52;13.90;;;0.20;99.90;;;-1.02;100.00;98677.47;5029487;28;20073;-65
2022/01/19 07:45:49;;;;;;;27.02;16.10;;;0.30;99.90;;;-1.03;100.00;98675.72;5030965;28;20054;-68
2022/01/19 07:48:16;;;;;;;23.75;15.13;;;0.30;99.90;;;-1.03;100.00;98670.63;5029437;28;20060;-65
2022/01/19 07:50:43;;;;;;;20.85;13.18;;;0.40;99.90;;;-1.00;100.00;98672.38;5029379;28;20502;-66
2022/01/19 07:53:10;;;;;;;26.40;13.70;;;0.40;99.90;;;-0.94;100.00;98672.53;5029735;28;20092;-67
2022/01/19 07:55:38;;;;;;;27.00;16.10;;;0.30;99.90;;;-0.88;100.00;98662.47;5030041;28;20137;-67
2022/01/19 07:58:05;;;;;;;25.02;14.88;;;0.40;99.90;;;-0.91;100.00;98664.97;5029886;28;20136;-67
2022/01/19 08:00:38;;;;;;;24.83;12.57;;;0.40;99.90;;;-0.77;100.00;98666.09;5026513;28;20088;-67
2022/01/19 08:03:05;;;;;;;27.00;16.42;;;0.50;99.90;;;-0.71;100.00;98662.78;5031719;28;20050;-67
2022/01/19 08:05:32;;;;;;;32.40;18.65;;;0.50;99.90;;;-0.77;100.00;98667.78;5030041;28;20041;-68
2022/01/19 08:08:01;;;;;;;28.08;16.15;;;0.50;99.90;;;-0.65;100.00;98653.56;5029097;28;20537;-67
2022/01/19 08:10:30;;;;;;;29.75;17.60;;;0.60;99.90;;;-0.72;100.00;98661.09;5027776;28;20545;-67
2022/01/19 08:13:01;;;;;;;36.55;19.05;;;0.80;99.90;;;-0.64;100.00;98655.31;5028708;28;20049;-68
2022/01/19 08:15:30;;;;;;;37.70;20.25;;;0.80;99.90;;;-0.70;100.00;98651.78;5027628;28;20068;-67
2022/01/19 08:17:57;;;;;;;33.35;18.20;;;0.90;99.90;;;-0.67;100.00;98656.91;5029181;28;20132;-68
2022/01/19 08:20:24;;;;;;;29.13;16.17;;;1.00;99.90;;;-0.47;100.00;98647.09;5030547;28;20136;-67
2022/01/19 08:22:51;;;;;;;32.85;19.20;;;0.90;99.90;;;-0.39;100.00;98648.09;5028885;28;20041;-67
2022/01/19 08:25:18;;;;;;;34.83;19.77;;;0.80;99.90;;;-0.62;100.00;98650.22;5028720;28;20497;-67
2022/01/19 08:27:45;;;;;;;28.35;16.27;;;0.90;99.90;;;-0.63;100.00;98644.25;5028540;28;20089;-68
2022/01/19 08:30:14;;;;;;;33.42;20.02;;;0.90;99.90;;;-0.53;100.00;98632.53;5028031;28;20124;-67
2022/01/19 08:32:42;;;;;;;35.70;17.52;;;0.90;99.90;;;-0.68;100.00;98647.56;5026636;28;20119;-67
2022/01/19 08:35:10;;;;;;;37.70;20.88;;;0.90;99.90;;;-0.52;100.00;98628.31;5027353;28;20234;-67
2022/01/19 08:37:37;;;;;;;34.08;18.42;;;0.90;99.90;;;-0.51;100.00;98633.44;5028801;28;20156;-67
2022/01/19 08:40:06;;;;;;;39.80;21.90;;;0.80;99.90;;;-0.65;100.00;98632.31;5028000;28;20087;-67
2022/01/19 08:42:36;;;;;;;34.28;19.45;;;0.80;99.90;;;-0.69;100.00;98639.03;5028050;28;20049;-68
2022/01/19 08:45:07;;;;;;;34.25;20.83;;;0.80;99.90;;;-0.86;100.00;98623.44;5027945;28;20052;-67
2022/01/19 08:47:40;;;;;;;36.65;19.42;;;0.70;99.90;;;-0.78;100.00;98623.56;5028587;28;20053;-67
2022/01/19 08:50:11;;;;;;;40.03;20.92;;;0.70;99.90;;;-0.95;100.00;98632.59;5027155;28;20049;-67
2022/01/19 08:52:38;;;;;;;40.90;23.10;;;0.70;99.90;;;-0.80;100.00;98624.38;5027639;28;20057;-67
2022/01/19 08:55:07;;;;;;;40.30;21.88;;;0.70;99.90;;;-0.67;100.00;98631.44;5027574;28;20080;-67
2022/01/19 08:57:34;;;;;;;42.55;21.27;;;0.70;99.90;;;-0.56;100.00;98632.50;5028503;28;20132;-68
2022/01/19 09:00:04;;;;;;;44.65;24.42;;;0.60;99.90;;;-1.01;100.00;98645.19;5028691;28;20137;-67
2022/01/19 09:02:32;;;;;;;37.05;20.42;;;0.70;99.90;;;-0.89;100.00;98642.88;5027271;28;20049;-67
2022/01/19 09:04:59;;;;;;;46.33;24.38;;;0.70;99.90;;;-0.83;100.00;98631.97;5028815;28;20140;-67
2022/01/19 09:07:30;;;;;;;43.88;22.65;;;0.60;99.90;;;-1.04;100.00;98632.41;5027953;28;20051;-67
2022/01/19 09:09:58;;;;;;;46.60;25.42;;;0.60;99.90;;;-1.03;100.00;98639.22;5028517;28;20409;-68
2022/01/19 09:12:25;;;;;;;43.65;21.70;;;0.50;99.90;;;-0.88;100.00;98645.47;5028095;28;20394;-68
2022/01/19 09:14:52;;;;;;;58.13;31.08;;;0.50;99.90;;;-1.14;100.00;98637.31;5028449;28;20049;-67
2022/01/19 09:17:19;;;;;;;48.42;24.48;;;0.50;99.90;;;-0.98;100.00;98635.94;5029038;28;20041;-67
2022/01/19 09:19:46;;;;;;;46.35;24.67;;;0.50;99.90;;;-0.98;100.00;98633.38;5028512;28;20041;-67
2022/01/19 09:22:13;;;;;;;50.33;25.85;;;0.50;99.90;;;-0.90;100.00;98633.53;5027774;28;20046;-68
2022/01/19 09:24:42;;;;;;;51.35;24.77;;;0.50;99.90;;;-1.05;100.00;98631.53;5027509;28;20076;-68
2022/01/19 09:27:10;;;;;;;52.40;25.08;;;0.50;99.90;;;-1.06;100.00;98629.81;5028035;28;20138;-66
2022/01/19 09:29:40;;;;;;;54.58;25.33;;;0.50;99.90;;;-1.17;100.00;98628.72;5026088;28;20577;-68
2022/01/19 09:32:10;;;;;;;54.28;26.92;;;0.50;99.90;;;-1.11;100.00;98623.78;5028816;28;20096;-67
2022/01/19 09:34:47;;;;;;;48.22;24.77;;;0.50;99.90;;;-0.92;100.00;98615.66;5026102;28;20152;-67
2022/01/19 09:37:17;;;;;;;45.70;19.83;;;0.50;99.90;;;-1.03;100.00;98618.81;5027609;28;20178;-67
2022/01/19 09:39:44;;;;;;;57.08;23.40;;;0.50;99.90;;;-0.81;100.00;98612.47;5027504;28;20083;-67
2022/01/19 09:42:11;;;;;;;49.35;25.10;;;0.40;99.90;;;-0.98;100.00;98618.09;5028249;28;20126;-68
2022/01/19 09:44:39;;;;;;;55.63;26.15;;;0.50;99.90;;;-1.07;100.00;98612.81;5031800;28;20606;-66
2022/01/19 09:47:07;;;;;;;45.20;24.58;;;0.50;99.90;;;-0.97;100.00;98614.72;5027405;28;20365;-65
2022/01/19 09:49:34;;;;;;;51.85;25.73;;;0.50;99.90;;;-0.98;100.00;98607.91;5027997;28;20054;-66
2022/01/19 09:52:02;;;;;;;57.40;26.63;;;0.60;99.90;;;-1.01;100.00;98609.53;5027609;28;20061;-68
2022/01/19 09:54:30;;;;;;;54.80;28.00;;;0.50;99.90;;;-0.98;100.00;98602.81;5031659;28;20124;-66
2022/01/19 09:56:58;;;;;;;43.08;22.67;;;0.50;99.90;;;-0.85;100.00;98603.88;5031650;28;20053;-66
2022/01/19 09:59:46;;;;;;;57.08;25.15;;;0.50;99.90;;;-1.00;100.00;98603.56;5031421;28;20143;-66
2022/01/19 10:02:15;;;;;;;47.95;24.42;;;0.60;99.90;;;-0.92;100.00;98617.34;5028877;28;20517;-66
2022/01/19 10:04:46;;;;;;;49.25;24.77;;;0.70;99.90;;;-0.93;100.00;98603.75;5029896;28;20038;-66
2022/01/19 10:07:24;;;;;;;55.28;27.05;;;0.70;99.90;;;-0.88;100.00;98597.03;5028913;28;20049;-66
2022/01/19 10:09:59;;;;;;;55.92;26.70;;;0.70;99.90;;;-0.87;100.00;98606.44;5035748;28;20140;-65
2022/01/19 10:18:20;;;;;;;51.30;26.08;;;0.70;99.90;;;-0.69;100.00;98600.78;5030910;28;20391;-65
2022/01/19 10:21:08;;;;;;;49.53;26.30;;;0.70;99.90;;;-0.76;100.00;98606.59;5032856;28;20529;-66
2022/01/19 10:23:50;;;;;;;47.40;24.10;;;0.80;99.90;;;-0.64;100.00;98599.22;5030373;28;20057;-65
2022/01/19 10:26:28;;;;;;;53.15;26.63;;;0.70;99.90;;;-0.55;100.00;98600.19;5029529;28;20380;-66
2022/01/19 10:29:11;;;;;;;59.00;25.60;;;0.80;99.90;;;-0.74;100.00;98599.00;5031038;28;20045;-66
2022/01/19 10:31:43;;;;;;;49.63;26.17;;;0.80;99.90;;;-0.64;100.00;98595.78;5030915;28;20087;-66
2022/01/19 10:34:13;;;;;;;44.83;22.85;;;0.80;99.90;;;-0.70;100.00;98588.88;5026751;28;20141;-66
2022/01/19 10:36:52;;;;;;;50.47;25.23;;;0.80;99.90;;;-0.49;100.00;98592.66;5030330;28;20566;-67
2022/01/19 10:39:22;;;;;;;46.65;23.98;;;0.80;99.90;;;-0.64;100.00;98591.56;5029328;28;20131;-66
2022/01/19 10:42:05;;;;;;;39.47;21.13;;;0.80;99.90;;;-0.40;100.00;98586.88;5031214;28;20133;-66
2022/01/19 10:44:35;;;;;;;52.92;26.77;;;0.80;99.90;;;-0.45;100.00;98586.78;5029957;28;20703;-66
2022/01/19 10:47:53;;;;;;;44.92;23.40;;;0.90;99.90;;;-0.56;100.00;98568.72;5032437;28;20045;-66
2022/01/19 10:50:30;;;;;;;39.33;20.35;;;0.90;99.90;;;-0.51;100.00;98572.22;5027863;28;20532;-66
2022/01/19 10:53:05;;;;;;;43.78;23.08;;;0.80;99.90;;;-0.56;100.00;98552.59;5044220;28;20055;-66
2022/01/19 10:55:42;;;;;;;40.60;22.25;;;0.90;99.90;;;-0.50;100.00;98550.13;5031038;28;20409;-66
2022/01/19 10:58:15;;;;;;;49.08;24.45;;;0.90;99.90;;;-0.67;100.00;98553.25;5026860;28;20158;-66
2022/01/19 11:00:51;;;;;;;48.83;24.17;;;1.00;99.90;;;-0.64;100.00;98547.31;5026325;28;20487;-67
2022/01/19 11:03:28;;;;;;;44.90;23.20;;;1.00;99.90;;;-0.49;100.00;98537.41;5029114;28;20125;-67
2022/01/19 11:06:01;;;;;;;47.35;24.35;;;1.00;99.90;;;-0.52;100.00;98565.41;5030223;28;20080;-66
2022/01/19 11:08:29;;;;;;;56.88;26.88;;;1.00;99.90;;;-0.58;100.00;98555.09;5029398;28;20136;-66
2022/01/19 11:11:01;;;;;;;51.22;25.48;;;1.00;99.90;;;-0.53;100.00;98543.28;5030590;28;20053;-66
2022/01/19 11:13:32;;;;;;;43.05;20.92;;;1.00;99.90;;;-0.40;100.00;98531.59;5028707;28;20055;-66
2022/01/19 11:16:03;;;;;;;53.55;22.98;;;1.00;99.90;;;-0.44;100.00;98545.13;5030259;28;20061;-66
2022/01/19 11:18:32;;;;;;;48.58;22.75;;;1.00;99.90;;;-0.54;100.00;98533.91;5028740;28;20046;-66
2022/01/19 11:21:07;;;;;;;47.15;22.13;;;1.00;99.90;;;-0.56;100.00;98550.88;5029777;28;20432;-66
2022/01/19 11:23:52;;;;;;;53.55;23.52;;;1.00;99.90;;;-0.57;100.00;98541.53;5026048;28;20091;-66
2022/01/19 11:26:27;;;;;;;58.33;24.92;;;1.00;99.90;;;-0.49;100.00;98528.91;5027951;28;20052;-66
2022/01/19 11:29:20;;;;;;;50.38;22.48;;;1.00;99.90;;;-0.44;100.00;98553.63;5027458;28;20056;-66
2022/01/19 11:31:52;;;;;;;63.33;27.42;;;0.90;99.90;;;-0.47;100.00;98540.84;5030480;28;20140;-66
2022/01/19 11:34:42;;;;;;;52.15;23.40;;;0.90;99.90;;;-0.39;100.00;98542.66;5029440;28;20087;-66
2022/01/19 11:37:10;;;;;;;60.65;25.38;;;0.90;99.90;;;-0.44;100.00;98542.56;5029538;28;20129;-66
2022/01/19 11:39:37;;;;;;;59.85;25.13;;;1.00;99.90;;;-0.44;100.00;98538.31;5033970;28;20085;-66
2022/01/19 11:42:05;;;;;;;66.45;26.80;;;1.00;99.90;;;-0.39;100.00;98507.78;5025306;28;20532;-65
2022/01/19 11:44:32;;;;;;;74.30;32.78;;;1.00;99.90;;;-0.42;100.00;98513.72;5029406;28;20172;-66
2022/01/19 11:47:13;;;;;;;71.68;29.60;;;1.00;99.90;;;-0.27;100.00;98518.22;5026719;28;20129;-66